Time;durP1;ratioP1;P1;durP2;ratioP2;P2;SDS_P1;SDS_P2;PMS_P1;PMS_P2;Temp;Humidity;BMP_temperature;BMP_pressure;BME280_temperature;BME280_humidity;BME280_pressure;Samples;Min_cycle;Max_cycle;Signal;HPM_P1;HPM_P2
2022/12/07 00:01:16;;;;;;;;;;;;;;;5.48;66.16;100404.56;5345909;32;45425;-80
2022/12/07 00:04:18;;;;;;;;;;;;;;;5.56;66.72;100407.88;5347687;32;35694;-72
2022/12/07 00:07:20;;;;;;;;;;;;;;;6.63;62.46;100397.88;5332569;32;36153;-80
2022/12/07 00:10:28;;;;;;;;;;;;;;;5.52;66.29;100390.56;5341617;32;34646;-66
2022/12/07 00:13:30;;;;;;;;;;;;;;;5.50;66.00;100392.34;5329235;32;35020;-66
2022/12/07 00:16:32;;;;;;;;;;;;;;;5.16;67.59;100390.34;5352127;32;35171;-64
2022/12/07 00:19:34;;;;;;;;;;;;;;;4.85;68.80;100384.75;5343862;32;34492;-66
2022/12/07 00:22:36;;;;;;;;;;;;;;;5.56;66.25;100387.03;5318140;32;35087;-79
2022/12/07 00:25:38;;;;;;;;;;;;;;;5.38;67.37;100378.63;5319721;32;45267;-65
2022/12/07 00:28:40;;;;;;;;;;;;;;;6.22;64.26;100368.31;5324946;32;34322;-80
2022/12/07 00:31:42;;;;;;;;;;;;;;;5.59;65.35;100369.56;5360453;32;34945;-64
2022/12/07 00:34:44;;;;;;;;;;;;;;;5.65;66.25;100371.19;5331033;32;34781;-65
2022/12/07 00:37:45;;;;;;;;;;;;;;;5.12;67.51;100368.69;5332522;32;35152;-80
2022/12/07 00:41:14;;;;;;;;;;;;;;;6.06;64.61;100357.38;5334097;32;35564;-74
2022/12/07 00:44:16;;;;;;;;;;;;;;;6.10;64.19;100360.75;5323361;32;47809;-73
2022/12/07 00:47:17;;;;;;;;;;;;;;;5.92;65.24;100362.84;5348996;32;34367;-67
2022/12/07 00:50:19;;;;;;;;;;;;;;;5.31;67.93;100360.53;5346843;32;35061;-64
2022/12/07 00:53:21;;;;;;;;;;;;;;;5.85;65.51;100361.22;5339849;32;34777;-74
2022/12/07 00:56:24;;;;;;;;;;;;;;;5.51;66.73;100363.63;5321685;32;35740;-77
2022/12/07 00:59:26;;;;;;;;;;;;;;;5.84;65.76;100362.13;5327613;32;36221;-64
2022/12/07 01:02:28;;;;;;;;;;;;;;;5.63;66.12;100365.16;5341780;32;35650;-65
2022/12/07 01:05:30;;;;;;;;;;;;;;;5.64;66.42;100352.09;5325807;32;34747;-81
2022/12/07 01:08:32;;;;;;;;;;;;;;;6.02;65.32;100341.81;5341087;32;35230;-64
2022/12/07 01:11:34;;;;;;;;;;;;;;;6.59;63.42;100338.78;5326394;32;34293;-64
2022/12/07 01:14:35;;;;;;;;;;;;;;;6.49;63.10;100333.75;5341071;32;34638;-65
2022/12/07 01:17:37;;;;;;;;;;;;;;;5.65;66.06;100348.59;5340756;32;44318;-66
2022/12/07 01:20:40;;;;;;;;;;;;;;;6.18;65.04;100353.62;5327553;32;34970;-64
2022/12/07 01:23:41;;;;;;;;;;;;;;;5.88;65.63;100355.09;5341011;32;34761;-80
2022/12/07 01:26:43;;;;;;;;;;;;;;;6.18;65.21;100351.00;5313734;32;35163;-66
2022/12/07 01:29:45;;;;;;;;;;;;;;;6.29;65.15;100351.63;5351550;32;34917;-64
2022/12/07 01:32:47;;;;;;;;;;;;;;;6.00;65.35;100339.22;5343749;32;35457;-73
2022/12/07 01:35:49;;;;;;;;;;;;;;;5.96;65.95;100340.19;5355184;32;35347;-66
2022/12/07 01:38:52;;;;;;;;;;;;;;;5.80;64.82;100344.84;5340200;32;35899;-74
2022/12/07 01:41:54;;;;;;;;;;;;;;;5.66;65.62;100346.81;5339397;32;35138;-79
2022/12/07 01:45:15;;;;;;;;;;;;;;;5.45;66.46;100348.09;5348417;32;34784;-65
2022/12/07 01:48:17;;;;;;;;;;;;;;;5.92;64.87;100341.13;5328190;32;44568;-81
2022/12/07 01:51:19;;;;;;;;;;;;;;;6.18;62.85;100336.22;5352796;32;34494;-79
2022/12/07 01:54:21;;;;;;;;;;;;;;;6.56;61.73;100339.69;5335514;32;35016;-80
2022/12/07 01:57:23;;;;;;;;;;;;;;;6.66;61.15;100327.31;5338734;32;35229;-80
2022/12/07 02:00:24;;;;;;;;;;;;;;;5.67;63.30;100335.53;5335150;32;35610;-64
2022/12/07 02:03:53;;;;;;;;;;;;;;;5.96;63.19;100334.97;5326858;32;35468;-80
2022/12/07 02:06:54;;;;;;;;;;;;;;;5.33;66.14;100330.94;5339529;32;34231;-65
2022/12/07 02:09:56;;;;;;;;;;;;;;;6.05;64.46;100334.75;5331597;32;34619;-79
2022/12/07 02:13:03;;;;;;;;;;;;;;;6.32;63.49;100329.84;5350477;32;35704;-79
2022/12/07 02:16:05;;;;;;;;;;;;;;;6.88;61.03;100320.62;5333542;32;34492;-64
2022/12/07 02:19:13;;;;;;;;;;;;;;;6.70;61.99;100331.56;5328771;32;34859;-80
2022/12/07 02:22:33;;;;;;;;;;;;;;;6.30;63.36;100326.41;5340661;32;44774;-80
2022/12/07 02:25:38;;;;;;;;;;;;;;;6.23;62.73;100326.53;5307538;32;35247;-65
2022/12/07 02:28:58;;;;;;;;;;;;;;;6.72;62.36;100327.16;5338245;32;44278;-65
2022/12/07 02:32:03;;;;;;;;;;;;;;;6.98;60.98;100319.53;5332962;32;36240;-80
2022/12/07 02:35:06;;;;;;;;;;;;;;;6.64;61.55;100329.09;5336051;32;36062;-81
2022/12/07 02:38:16;;;;;;;;;;;;;;;6.75;61.19;100321.84;5350512;32;45198;-64
2022/12/07 02:41:20;;;;;;;;;;;;;;;6.11;63.54;100333.75;5316873;32;35152;-66
2022/12/07 02:44:23;;;;;;;;;;;;;;;6.16;63.82;100324.94;5334958;32;35365;-79
2022/12/07 02:47:25;;;;;;;;;;;;;;;6.03;64.43;100325.25;5321458;32;35776;-64
2022/12/07 02:50:27;;;;;;;;;;;;;;;6.37;63.76;100334.03;5333275;32;34586;-64
2022/12/07 02:53:33;;;;;;;;;;;;;;;5.54;66.15;100334.03;5352133;32;35039;-64
2022/12/07 02:56:43;;;;;;;;;;;;;;;6.49;63.55;100319.84;5329624;32;34354;-64
2022/12/07 02:59:48;;;;;;;;;;;;;;;6.35;64.08;100319.31;5346308;32;44675;-64
2022/12/07 03:02:54;;;;;;;;;;;;;;;6.36;63.18;100321.03;5325814;32;35036;-64
2022/12/07 03:06:02;;;;;;;;;;;;;;;6.02;65.03;100313.09;5340147;32;35057;-64
2022/12/07 03:09:11;;;;;;;;;;;;;;;7.02;61.92;100300.28;5327732;32;34647;-80
2022/12/07 03:12:14;;;;;;;;;;;;;;;6.51;63.25;100299.81;5319676;32;44851;-81
2022/12/07 03:15:19;;;;;;;;;;;;;;;6.87;62.07;100307.63;5338539;32;35127;-64
2022/12/07 03:18:21;;;;;;;;;;;;;;;7.06;61.15;100309.72;5327225;32;35149;-75
2022/12/07 03:21:26;;;;;;;;;;;;;;;6.96;61.55;100300.44;5342337;32;34160;-80
2022/12/07 03:24:29;;;;;;;;;;;;;;;6.94;61.59;100310.03;5325591;32;35435;-79
2022/12/07 03:27:32;;;;;;;;;;;;;;;7.13;61.25;100302.59;5319506;32;35258;-64
2022/12/07 03:30:55;;;;;;;;;;;;;;;6.85;62.00;100288.53;5350010;32;35366;-79
2022/12/07 03:34:12;;;;;;;;;;;;;;;6.74;62.30;100302.69;5337787;32;34590;-65
2022/12/07 03:37:40;;;;;;;;;;;;;;;6.68;63.29;100302.00;5342263;32;47368;-65
2022/12/07 03:40:41;;;;;;;;;;;;;;;5.94;66.35;100310.66;5326652;32;47280;-63
2022/12/07 03:43:43;;;;;;;;;;;;;;;6.14;66.06;100310.22;5333115;32;35219;-65
2022/12/07 03:46:54;;;;;;;;;;;;;;;6.59;64.30;100307.47;5345552;32;35122;-74
2022/12/07 03:50:04;;;;;;;;;;;;;;;6.85;63.66;100309.44;5331955;32;35028;-65
2022/12/07 03:53:25;;;;;;;;;;;;;;;5.90;66.01;100311.56;5339838;32;34684;-79
2022/12/07 03:56:27;;;;;;;;;;;;;;;6.17;65.78;100317.97;5334868;32;36098;-64
2022/12/07 03:59:29;;;;;;;;;;;;;;;5.89;68.40;100317.69;5327250;32;35676;-79
2022/12/07 04:02:31;;;;;;;;;;;;;;;6.14;67.60;100325.88;5351771;32;34967;-79
2022/12/07 04:05:33;;;;;;;;;;;;;;;5.93;68.25;100327.22;5343009;32;34649;-79
2022/12/07 04:08:34;;;;;;;;;;;;;;;5.63;70.10;100339.94;5352009;32;34628;-80
2022/12/07 04:11:36;;;;;;;;;;;;;;;5.28;71.09;100344.94;5335613;32;35001;-79
2022/12/07 04:14:38;;;;;;;;;;;;;;;5.56;71.66;100337.50;5346168;32;44377;-80
2022/12/07 04:17:40;;;;;;;;;;;;;;;5.47;71.91;100342.84;5327042;32;34704;-65
2022/12/07 04:20:42;;;;;;;;;;;;;;;5.80;70.41;100331.78;5342446;32;35092;-65
2022/12/07 04:23:44;;;;;;;;;;;;;;;5.68;70.20;100339.84;5342928;32;34620;-65
2022/12/07 04:26:46;;;;;;;;;;;;;;;6.23;68.86;100329.13;5319955;32;35263;-64
2022/12/07 04:29:48;;;;;;;;;;;;;;;6.02;69.16;100336.59;5351148;32;34724;-74
2022/12/07 04:32:49;;;;;;;;;;;;;;;6.57;67.39;100335.34;5342346;32;35215;-80
2022/12/07 04:35:51;;;;;;;;;;;;;;;5.57;71.92;100341.81;5356773;32;34918;-67
2022/12/07 04:38:54;;;;;;;;;;;;;;;6.95;66.42;100326.56;5326459;32;35060;-65
2022/12/07 04:41:56;;;;;;;;;;;;;;;6.09;69.58;100331.19;5334409;32;34664;-64
2022/12/07 04:44:58;;;;;;;;;;;;;;;5.81;71.69;100330.91;5349755;32;34760;-64
2022/12/07 04:48:00;;;;;;;;;;;;;;;6.28;70.65;100334.25;5330061;32;34917;-65
2022/12/07 04:51:03;;;;;;;;;;;;;;;6.45;68.35;100315.63;5356536;32;34633;-66
2022/12/07 04:54:05;;;;;;;;;;;;;;;6.06;72.33;100330.41;5332821;32;34306;-80
2022/12/07 04:57:07;;;;;;;;;;;;;;;6.40;70.87;100334.00;5348501;32;34486;-82
2022/12/07 05:00:09;;;;;;;;;;;;;;;6.29;70.09;100335.97;5329536;32;45392;-80
2022/12/07 05:03:11;;;;;;;;;;;;;;;6.38;71.02;100335.78;5328326;32;35544;-80
2022/12/07 05:06:13;;;;;;;;;;;;;;;6.47;71.20;100340.78;5356921;32;34983;-75
2022/12/07 05:09:14;;;;;;;;;;;;;;;6.78;69.28;100333.09;5335502;32;34900;-81
2022/12/07 05:12:16;;;;;;;;;;;;;;;7.48;65.83;100327.81;5342586;32;35094;-80
2022/12/07 05:15:18;;;;;;;;;;;;;;;6.31;71.30;100315.06;5323735;32;35438;-63
2022/12/07 05:18:20;;;;;;;;;;;;;;;7.32;67.76;100316.03;5341249;32;34973;-82
2022/12/07 05:21:22;;;;;;;;;;;;;;;7.75;65.12;100309.62;5339684;32;34361;-65
2022/12/07 05:24:24;;;;;;;;;;;;;;;7.26;66.11;100310.97;5316902;32;34996;-80
2022/12/07 05:27:26;;;;;;;;;;;;;;;7.56;66.62;100319.75;5333070;32;34874;-81
2022/12/07 05:30:28;;;;;;;;;;;;;;;7.67;64.87;100309.84;5327574;32;34935;-65
2022/12/07 05:33:29;;;;;;;;;;;;;;;7.96;64.22;100292.41;5348928;32;34764;-81
2022/12/07 05:36:31;;;;;;;;;;;;;;;7.48;65.24;100304.25;5332595;32;34543;-81
2022/12/07 05:39:33;;;;;;;;;;;;;;;7.49;64.80;100292.91;5344404;32;34786;-64
2022/12/07 05:42:35;;;;;;;;;;;;;;;7.44;64.50;100300.00;5337225;32;37136;-64
2022/12/07 05:45:37;;;;;;;;;;;;;;;7.41;65.27;100299.25;5326883;32;34988;-80
2022/12/07 05:48:39;;;;;;;;;;;;;;;7.46;65.41;100298.19;5355783;32;44770;-65
2022/12/07 05:51:40;;;;;;;;;;;;;;;7.37;65.86;100301.06;5337236;32;34644;-81
2022/12/07 05:54:42;;;;;;;;;;;;;;;7.22;66.79;100301.50;5342206;32;34769;-81
2022/12/07 05:59:22;;;;;;;;;;;;;;;7.31;66.87;100303.84;5329274;32;35603;-65
2022/12/07 06:01:06;;;;;;;;;;;;;;;7.38;66.01;100307.16;5334964;32;35164;-64
2022/12/07 06:04:08;;;;;;;;;;;;;;;7.22;66.26;100299.75;5343510;32;44559;-65
2022/12/07 06:07:10;;;;;;;;;;;;;;;7.34;67.31;100306.38;5329118;32;35293;-63
2022/12/07 06:10:12;;;;;;;;;;;;;;;7.62;66.28;100305.63;5342107;32;35678;-65
2022/12/07 06:13:14;;;;;;;;;;;;;;;7.29;66.40;100308.28;5338114;32;34439;-80
2022/12/07 06:16:16;;;;;;;;;;;;;;;6.94;67.63;100304.81;5344708;32;35462;-64
2022/12/07 06:19:18;;;;;;;;;;;;;;;7.41;67.22;100309.72;5325550;32;34713;-74
2022/12/07 06:22:20;;;;;;;;;;;;;;;6.49;70.31;100312.88;5344076;32;34406;-82
2022/12/07 06:25:22;;;;;;;;;;;;;;;7.54;67.66;100298.88;5318953;32;36690;-80
2022/12/07 06:28:24;;;;;;;;;;;;;;;6.61;69.58;100316.97;5330490;32;35346;-64
2022/12/07 06:31:26;;;;;;;;;;;;;;;6.85;69.98;100315.50;5340921;32;34216;-80
2022/12/07 06:34:28;;;;;;;;;;;;;;;6.96;68.68;100318.72;5335512;32;35230;-65
2022/12/07 06:37:30;;;;;;;;;;;;;;;7.12;68.87;100315.69;5336534;32;35763;-66
2022/12/07 06:40:32;;;;;;;;;;;;;;;7.50;65.87;100323.38;5319638;32;34625;-64
2022/12/07 06:47:20;;;;;;;;;;;;;;;8.00;62.83;100325.47;5485389;27;19983;-94
2022/12/07 06:51:10;;;;;;;;;;;;;;;7.98;62.45;100327.25;5338667;32;36107;-91
2022/12/07 06:54:19;;;;;;;;;;;;;;;7.48;64.39;100327.81;5305910;32;34029;-89
2022/12/07 06:57:29;;;;;;;;;;;;;;;7.68;64.10;100335.09;5334910;33;42937;-95
2022/12/07 07:00:35;;;;;;;;;;;;;;;7.58;64.42;100334.47;5298874;33;35913;-91
2022/12/07 07:03:50;;;;;;;;;;;;;;;7.03;65.97;100335.09;5302430;32;33434;-89
2022/12/07 07:06:55;;;;;;;;;;;;;;;6.35;69.12;100341.06;5272475;33;44285;-89
2022/12/07 07:10:01;;;;;;;;;;;;;;;7.46;66.06;100332.19;5290005;32;32729;-89
2022/12/07 07:13:06;;;;;;;;;;;;;;;7.51;66.13;100340.78;5277415;33;34311;-89
2022/12/07 07:16:17;;;;;;;;;;;;;;;7.85;63.89;100331.97;5326510;33;35262;-96
2022/12/07 07:19:26;;;;;;;;;;;;;;;8.08;63.57;100332.19;5305546;33;43072;-89
2022/12/07 07:22:45;;;;;;;;;;;;;;;7.69;65.35;100335.94;5292624;32;35309;-90
2022/12/07 07:25:51;;;;;;;;;;;;;;;7.76;65.38;100335.72;5287658;33;43407;-88
2022/12/07 07:28:55;;;;;;;;;;;;;;;6.89;69.18;100343.28;5296347;33;33184;-90
2022/12/07 07:31:58;;;;;;;;;;;;;;;7.14;68.07;100340.88;5307836;32;33524;-89
2022/12/07 07:35:11;;;;;;;;;;;;;;;7.74;67.20;100344.53;5318757;33;35076;-90
2022/12/07 07:38:30;;;;;;;;;;;;;;;7.66;66.50;100343.88;5291845;32;45308;-94
2022/12/07 07:42:02;;;;;;;;;;;;;;;7.07;68.62;100327.12;5300286;33;35438;-96
2022/12/07 07:45:14;;;;;;;;;;;;;;;7.06;68.63;100314.94;5279055;33;35109;-96
2022/12/07 07:48:37;;;;;;;;;;;;;;;7.09;69.10;100328.84;5276038;33;44167;-96
2022/12/07 07:51:46;;;;;;;;;;;;;;;7.63;68.48;100336.13;5288469;33;33236;-90
2022/12/07 07:55:12;;;;;;;;;;;;;;;8.36;65.04;100334.84;5284363;33;35485;-92
2022/12/07 07:58:31;;;;;;;;;;;;;;;7.65;66.00;100334.31;5262647;33;44884;-89
2022/12/07 08:01:49;;;;;;;;;;;;;;;7.41;67.07;100336.72;5281295;33;34219;-89
2022/12/07 08:05:00;;;;;;;;;;;;;;;7.99;65.88;100348.16;5319909;32;44147;-91
2022/12/07 08:08:26;;;;;;;;;;;;;;;7.63;67.25;100343.97;5370938;32;44919;-92
2022/12/07 08:11:40;;;;;;;;;;;;;;;8.03;65.54;100335.81;5382108;32;33284;-91
2022/12/07 08:14:53;;;;;;;;;;;;;;;8.62;63.51;100335.78;5370897;32;34202;-92
2022/12/07 08:18:04;;;;;;;;;;;;;;;8.18;65.25;100342.37;5379815;32;44464;-95
2022/12/07 08:21:20;;;;;;;;;;;;;;;9.10;61.84;100337.72;5393750;32;34579;-92
2022/12/07 08:24:35;;;;;;;;;;;;;;;8.14;63.51;100350.31;5362107;32;33844;-92
2022/12/07 08:27:57;;;;;;;;;;;;;;;9.11;60.93;100355.16;5367610;32;34902;-92
2022/12/07 08:34:46;;;;;;;;;;;;;;;8.70;63.23;100351.28;5354606;32;43672;-95
2022/12/07 08:37:53;;;;;;;;;;;;;;;8.66;63.05;100353.13;5347892;32;33256;-91
2022/12/07 08:41:01;;;;;;;;;;;;;;;7.96;64.94;100361.31;5324854;32;42798;-95
2022/12/07 08:44:10;;;;;;;;;;;;;;;7.93;65.31;100363.19;5351164;32;35308;-96
2022/12/07 08:47:48;;;;;;;;;;;;;;;9.00;61.96;100363.38;5357411;32;44921;-94
2022/12/07 08:51:08;;;;;;;;;;;;;;;8.90;62.72;100359.37;5374195;32;34821;-96
2022/12/07 08:54:25;;;;;;;;;;;;;;;7.52;63.52;100362.56;5345241;32;36368;-96
2022/12/07 08:58:09;;;;;;;;;;;;;;;7.87;62.87;100362.47;5374303;32;35436;-93
2022/12/07 09:01:36;;;;;;;;;;;;;;;8.57;60.79;100358.69;5372290;32;34941;-96
2022/12/07 09:04:59;;;;;;;;;;;;;;;7.43;64.04;100363.66;5366883;32;38171;-91
2022/12/07 09:08:35;;;;;;;;;;;;;;;8.60;60.23;100359.44;5339504;32;35875;-94
2022/12/07 09:11:55;;;;;;;;;;;;;;;7.76;62.46;100364.50;5395406;32;34181;-92
2022/12/07 09:15:08;;;;;;;;;;;;;;;8.44;60.65;100367.78;5091965;32;9079262;-96
2022/12/07 09:18:15;;;;;;;;;;;;;;;8.32;61.57;100358.53;5326085;32;33719;-92
2022/12/07 09:21:29;;;;;;;;;;;;;;;8.01;61.44;100353.34;5346763;32;44285;-91
2022/12/07 09:24:47;;;;;;;;;;;;;;;8.54;59.68;100349.13;5333285;32;35386;-94
2022/12/07 09:28:00;;;;;;;;;;;;;;;7.77;61.10;100354.91;5332930;32;44452;-92
2022/12/07 09:31:19;;;;;;;;;;;;;;;9.01;58.43;100335.41;5354029;32;36468;-93
2022/12/07 09:34:26;;;;;;;;;;;;;;;8.71;58.30;100335.50;5343992;32;42961;-96
2022/12/07 09:37:36;;;;;;;;;;;;;;;9.00;56.47;100345.03;5340348;32;34178;-94
2022/12/07 09:40:43;;;;;;;;;;;;;;;9.58;55.26;100340.41;5336043;32;34281;-93
2022/12/07 09:43:51;;;;;;;;;;;;;;;8.87;57.12;100339.34;5329626;32;35125;-90
2022/12/07 09:47:01;;;;;;;;;;;;;;;8.63;58.00;100343.62;5330798;32;43482;-95
2022/12/07 09:50:23;;;;;;;;;;;;;;;9.05;56.71;100329.16;5347589;32;36850;-96
2022/12/07 09:53:40;;;;;;;;;;;;;;;8.09;58.98;100330.41;5363859;32;44277;-96
2022/12/07 09:56:54;;;;;;;;;;;;;;;8.19;58.40;100328.41;5339751;32;33310;-91
2022/12/07 10:00:03;;;;;;;;;;;;;;;8.43;58.28;100325.03;5340551;32;44628;-94
2022/12/07 10:03:23;;;;;;;;;;;;;;;9.03;57.40;100321.34;5358267;32;35248;-91
2022/12/07 10:07:00;;;;;;;;;;;;;;;8.94;58.28;100316.41;5295392;33;34060;-93
2022/12/07 10:10:39;;;;;;;;;;;;;;;8.85;55.38;100322.81;5315476;33;35421;-94
2022/12/07 10:14:31;;;;;;;;;;;;;;;9.36;54.29;100318.47;5265040;33;36879;-92
2022/12/07 10:18:16;;;;;;;;;;;;;;;9.06;54.80;100315.13;5249869;33;34903;-89
2022/12/07 10:21:23;;;;;;;;;;;;;;;8.86;56.08;100308.78;5239106;33;34367;-94
2022/12/07 10:24:29;;;;;;;;;;;;;;;9.14;55.95;100300.84;5232095;33;43224;-90
2022/12/07 10:27:32;;;;;;;;;;;;;;;9.66;52.78;100300.75;5211520;33;34876;-96
2022/12/07 10:30:47;;;;;;;;;;;;;;;9.77;53.40;100302.06;5232591;33;36881;-93
2022/12/07 10:34:00;;;;;;;;;;;;;;;9.59;53.99;100308.00;5229211;33;45273;-94
2022/12/07 10:37:07;;;;;;;;;;;;;;;9.65;54.92;100299.91;5241565;33;34372;-90
2022/12/07 10:40:35;;;;;;;;;;;;;;;11.12;50.41;100299.38;5272084;33;35525;-94
2022/12/07 10:44:02;;;;;;;;;;;;;;;;;;;;;
2022/12/07 10:47:30;;;;;;;;;;;;;;;10.68;49.14;100291.56;5316468;32;35671;-94
2022/12/07 10:50:57;;;;;;;;;;;;;;;9.55;51.95;100281.94;5320711;32;33925;-95
2022/12/07 10:54:29;;;;;;;;;;;;;;;9.31;51.92;100291.53;5323666;33;34363;-92
2022/12/07 10:58:02;;;;;;;;;;;;;;;9.94;51.47;100284.84;5251435;28;34919;-85
2022/12/07 11:01:12;;;;;;;;;;;;;;;10.23;50.59;100295.09;5241097;33;35841;-87
2022/12/07 11:04:17;;;;;;;;;;;;;;;10.80;49.13;100284.94;5243947;33;35364;-89
2022/12/07 11:07:23;;;;;;;;;;;;;;;9.89;51.32;100292.03;5252076;33;35894;-69
2022/12/07 11:10:25;;;;;;;;;;;;;;;9.78;52.24;100290.66;5239058;33;44560;-84
2022/12/07 11:13:29;;;;;;;;;;;;;;;9.82;51.43;100278.28;5239119;33;33620;-69
2022/12/07 11:16:40;;;;;;;;;;;;;;;9.25;53.20;100279.50;5246799;33;35952;-70
2022/12/07 11:19:54;;;;;;;;;;;;;;;9.48;52.21;100282.16;5277954;33;35099;-75
2022/12/07 11:22:59;;;;;;;;;;;;;;;9.05;53.07;100274.94;5298373;32;44778;-68
2022/12/07 11:26:04;;;;;;;;;;;;;;;9.93;50.97;100270.03;5294510;32;35019;-76
2022/12/07 11:29:19;;;;;;;;;;;;;;;10.09;50.79;100268.50;5322543;32;35891;-74
2022/12/07 11:32:40;;;;;;;;;;;;;;;10.67;49.75;100255.69;5309876;32;44557;-83
2022/12/07 11:35:42;;;;;;;;;;;;;;;10.10;51.18;100264.09;5314361;32;34696;-68
2022/12/07 11:38:50;;;;;;;;;;;;;;;9.15;53.09;100273.75;5320001;32;35658;-66
2022/12/07 11:41:54;;;;;;;;;;;;;;;10.22;50.62;100268.88;5305382;32;44517;-68
2022/12/07 11:44:58;;;;;;;;;;;;;;;9.34;53.54;100267.81;5319070;32;35932;-70
2022/12/07 11:48:03;;;;;;;;;;;;;;;9.77;52.96;100267.09;5316590;32;35206;-67
2022/12/07 11:51:06;;;;;;;;;;;;;;;9.49;52.43;100268.13;5322868;32;38072;-68
2022/12/07 11:54:14;;;;;;;;;;;;;;;9.41;53.33;100275.44;5310905;32;36306;-68
2022/12/07 11:57:19;;;;;;;;;;;;;;;10.12;51.23;100275.41;5309426;32;36058;-64
2022/12/07 12:00:21;;;;;;;;;;;;;;;9.86;51.81;100279.03;5312011;32;44856;-65
2022/12/07 12:03:29;;;;;;;;;;;;;;;8.84;54.17;100287.03;5311093;32;34277;-64
2022/12/07 12:06:34;;;;;;;;;;;;;;;8.89;55.71;100279.03;5322626;32;35980;-66
2022/12/07 12:09:47;;;;;;;;;;;;;;;10.00;51.58;100263.63;5309052;32;36304;-65
2022/12/07 12:13:03;;;;;;;;;;;;;;;10.04;51.21;100254.69;5311533;32;44353;-66
2022/12/07 12:16:37;;;;;;;;;;;;;;;10.20;51.04;100249.69;5313373;32;44912;-68
2022/12/07 12:19:45;;;;;;;;;;;;;;;9.69;53.10;100254.28;5320949;32;37776;-70
2022/12/07 12:22:50;;;;;;;;;;;;;;;8.91;54.53;100249.22;5307432;32;34680;-68
2022/12/07 12:25:52;;;;;;;;;;;;;;;9.69;52.36;100238.53;5307248;32;43321;-69
2022/12/07 12:28:55;;;;;;;;;;;;;;;9.62;51.90;100234.44;5308068;32;36111;-68
2022/12/07 12:32:16;;;;;;;;;;;;;;;11.25;47.64;100219.00;5318535;32;36996;-66
2022/12/07 12:35:18;;;;;;;;;;;;;;;11.88;46.33;100211.75;5309071;32;36096;-68
2022/12/07 12:38:30;;;;;;;;;;;;;;;12.23;45.10;100208.31;5321795;32;44562;-66
2022/12/07 12:41:35;;;;;;;;;;;;;;;13.00;43.42;100206.19;5305039;32;34687;-69
2022/12/07 12:44:38;;;;;;;;;;;;;;;15.14;38.86;100195.00;5303887;32;35055;-69
2022/12/07 12:47:42;;;;;;;;;;;;;;;15.12;38.19;100199.53;5331384;32;34840;-70
2022/12/07 12:50:45;;;;;;;;;;;;;;;14.85;38.24;100202.03;5315382;32;34360;-64
2022/12/07 12:53:46;;;;;;;;;;;;;;;13.88;40.19;100197.94;5323680;32;36873;-67
2022/12/07 12:57:07;;;;;;;;;;;;;;;13.99;40.39;100203.50;5308804;32;36053;-69
2022/12/07 13:00:15;;;;;;;;;;;;;;;14.70;38.68;100207.41;5323096;32;35103;-67
2022/12/07 13:03:27;;;;;;;;;;;;;;;13.32;41.67;100212.44;5315811;32;35406;-72
2022/12/07 13:06:35;;;;;;;;;;;;;;;12.96;40.81;100223.97;5312426;32;44764;-68
2022/12/07 13:09:37;;;;;;;;;;;;;;;12.14;43.15;100228.09;5320264;32;35873;-68
2022/12/07 13:12:39;;;;;;;;;;;;;;;12.01;43.68;100225.19;5295549;32;36870;-73
2022/12/07 13:15:42;;;;;;;;;;;;;;;9.72;49.97;100235.81;5320789;32;35989;-70
2022/12/07 13:18:44;;;;;;;;;;;;;;;9.39;51.76;100237.03;5305271;32;35035;-67
2022/12/07 13:21:46;;;;;;;;;;;;;;;9.15;50.87;100236.19;5313209;32;34628;-69
2022/12/07 13:24:48;;;;;;;;;;;;;;;9.05;52.67;100237.41;5314522;32;36358;-74
2022/12/07 13:28:10;;;;;;;;;;;;;;;9.61;51.11;100240.59;5306267;32;38154;-72
2022/12/07 13:31:12;;;;;;;;;;;;;;;9.64;49.48;100243.09;5325225;32;36532;-74
2022/12/07 13:34:34;;;;;;;;;;;;;;;9.23;50.75;100248.09;5309896;32;36588;-71
2022/12/07 13:37:36;;;;;;;;;;;;;;;9.32;50.93;100240.78;5320355;32;36874;-67
2022/12/07 13:40:39;;;;;;;;;;;;;;;9.61;49.13;100235.34;5320435;32;34971;-86
2022/12/07 13:43:42;;;;;;;;;;;;;;;9.10;50.21;100248.59;5291439;32;35074;-81
2022/12/07 13:47:03;;;;;;;;;;;;;;;9.79;48.69;100236.44;5330317;32;34905;-68
2022/12/07 13:50:21;;;;;;;;;;;;;;;9.70;49.91;100244.63;5315234;32;35286;-67
2022/12/07 13:53:24;;;;;;;;;;;;;;;9.96;48.40;100241.00;5318565;32;44610;-83
2022/12/07 13:56:27;;;;;;;;;;;;;;;8.21;53.12;100264.59;5312828;32;36628;-68
2022/12/07 13:59:33;;;;;;;;;;;;;;;9.06;51.30;100260.06;5311611;32;36023;-67
2022/12/07 14:02:35;;;;;;;;;;;;;;;8.29;53.25;100259.09;5320111;32;36000;-66
2022/12/07 14:05:43;;;;;;;;;;;;;;;8.67;53.07;100264.00;5304299;32;35066;-67
2022/12/07 14:08:45;;;;;;;;;;;;;;;8.89;51.88;100268.53;5328360;32;35186;-69
2022/12/07 14:11:47;;;;;;;;;;;;;;;8.21;54.54;100263.75;5312237;32;34759;-71
2022/12/07 14:14:49;;;;;;;;;;;;;;;9.06;52.79;100257.44;5320505;32;34734;-83
2022/12/07 14:17:52;;;;;;;;;;;;;;;8.92;52.47;100256.16;5326664;32;45273;-81
2022/12/07 14:21:09;;;;;;;;;;;;;;;8.87;52.71;100258.09;5319465;32;34936;-75
2022/12/07 14:24:19;;;;;;;;;;;;;;;8.59;53.19;100255.53;5339907;32;34633;-78
2022/12/07 14:27:22;;;;;;;;;;;;;;;8.06;55.18;100260.69;5312621;32;44798;-68
2022/12/07 14:30:28;;;;;;;;;;;;;;;8.05;55.36;100258.09;5324643;32;34860;-68
2022/12/07 14:33:31;;;;;;;;;;;;;;;7.94;56.33;100262.84;5314910;32;34693;-70
2022/12/07 14:36:33;;;;;;;;;;;;;;;7.51;56.92;100264.94;5311057;32;36377;-83
2022/12/07 14:39:36;;;;;;;;;;;;;;;8.31;55.34;100260.78;5335399;32;36429;-90
2022/12/07 14:42:43;;;;;;;;;;;;;;;8.65;54.50;100262.34;5298871;32;35144;-82
2022/12/07 14:45:45;;;;;;;;;;;;;;;9.00;52.94;100265.53;5320104;32;36909;-79
2022/12/07 14:48:47;;;;;;;;;;;;;;;8.78;53.98;100268.03;5315825;32;36019;-67
2022/12/07 14:52:20;;;;;;;;;;;;;;;9.03;53.46;100271.53;5312552;32;35135;-68
2022/12/07 14:55:42;;;;;;;;;;;;;;;8.78;53.89;100275.91;5321666;32;36632;-70
2022/12/07 14:58:44;;;;;;;;;;;;;;;7.50;58.13;100275.44;5311691;32;35862;-77
2022/12/07 15:01:46;;;;;;;;;;;;;;;8.60;55.25;100280.81;5319753;32;34680;-67
2022/12/07 15:04:48;;;;;;;;;;;;;;;8.55;55.02;100282.72;5316472;32;36086;-77
2022/12/07 15:07:50;;;;;;;;;;;;;;;8.04;55.52;100291.28;5312970;32;44722;-68
2022/12/07 15:10:53;;;;;;;;;;;;;;;8.65;54.40;100278.06;5320222;32;34802;-67
2022/12/07 15:14:13;;;;;;;;;;;;;;;9.03;53.00;100279.41;5315594;32;34782;-70
2022/12/07 15:17:15;;;;;;;;;;;;;;;9.01;53.20;100285.59;5324454;32;36263;-68
2022/12/07 15:20:32;;;;;;;;;;;;;;;8.59;53.91;100292.22;5315862;32;34674;-69
2022/12/07 15:23:34;;;;;;;;;;;;;;;8.94;53.51;100290.19;5320155;32;36229;-72
2022/12/07 15:26:36;;;;;;;;;;;;;;;8.61;54.39;100286.91;5321596;32;34687;-71
2022/12/07 15:29:38;;;;;;;;;;;;;;;8.43;55.01;100296.22;5314204;32;34810;-74
2022/12/07 15:32:40;;;;;;;;;;;;;;;8.39;55.17;100290.25;5319016;32;36772;-66
2022/12/07 15:35:43;;;;;;;;;;;;;;;8.45;54.60;100296.19;5317227;32;34716;-91
2022/12/07 15:38:45;;;;;;;;;;;;;;;8.56;54.26;100299.31;5329907;32;37662;-75
2022/12/07 15:42:07;;;;;;;;;;;;;;;7.80;56.71;100305.13;5299036;32;34951;-67
2022/12/07 15:45:10;;;;;;;;;;;;;;;6.64;58.77;100316.03;5303319;32;36311;-67
2022/12/07 15:48:11;;;;;;;;;;;;;;;7.99;55.50;100310.66;5331201;32;34796;-68
2022/12/07 15:51:30;;;;;;;;;;;;;;;7.32;56.77;100321.25;5313840;32;35214;-75
2022/12/07 15:54:32;;;;;;;;;;;;;;;7.78;54.97;100319.97;5319397;32;34968;-69
2022/12/07 15:57:35;;;;;;;;;;;;;;;7.77;54.95;100321.75;5313540;32;36291;-67
2022/12/07 16:00:37;;;;;;;;;;;;;;;7.96;54.42;100319.44;5313301;32;34708;-68
2022/12/07 16:03:39;;;;;;;;;;;;;;;7.54;55.26;100319.78;5320281;32;37007;-87
2022/12/07 16:06:41;;;;;;;;;;;;;;;7.39;56.17;100320.19;5309875;32;34686;-68
2022/12/07 16:09:43;;;;;;;;;;;;;;;7.72;55.44;100321.00;5331187;32;34848;-67
2022/12/07 16:12:45;;;;;;;;;;;;;;;7.76;54.96;100316.56;5309456;32;36469;-88
2022/12/07 16:15:47;;;;;;;;;;;;;;;8.25;53.92;100321.22;5328561;32;34777;-86
2022/12/07 16:18:49;;;;;;;;;;;;;;;8.47;53.10;100317.94;5311098;32;36122;-68
2022/12/07 16:21:52;;;;;;;;;;;;;;;7.66;55.34;100317.72;5322628;32;44814;-67
2022/12/07 16:24:54;;;;;;;;;;;;;;;7.69;55.04;100315.03;5319695;32;36311;-87
2022/12/07 16:27:56;;;;;;;;;;;;;;;7.46;55.94;100311.28;5316569;32;36529;-68